Flight Track Log - Related Links

Times and Time Zones

All times are in EDT time to prevent confusion due to time zone crossing. See the SWA303 flight status page for this flight to view local times or setup timezone preferences in your user account.

Time Position Orientation Groundspeed Altitude Reporting Facility
EDT Latitude Longitude Course Direction KTS MPH feet Rate Location/Type
Mon 02:39:53 PM 39.8833 -104.5667 84° East 191 220 7,800  Level Denver TRACON
Mon 02:40:53 PM 39.8667 -104.4833 105° East 248 285 10,300 2,350 Climbing Denver TRACON
Mon 02:41:53 PM 39.8667 -104.3667 90° East 330 380 12,500 2,289 Climbing Denver TRACON
Mon 02:42:09 PM 39.8736 -104.3306 76° East 332 382 13,200 2,385 Climbing Denver Center
Mon 02:43:11 PM 39.8722 -104.1922 91° East 388 447 15,600 2,537 Climbing Denver Center
Mon 02:44:12 PM 39.8708 -104.0414 91° East 418 481 18,400 2,829 Climbing Denver Center
Mon 02:45:00 PM 39.9912 -102.9968 84° East  Level Estimated
Mon 02:45:14 PM 39.8725 -103.8689 89° East 442 509 21,400  Level Denver Center
Mon 02:46:16 PM 39.8842 -103.7183 84° East 460 529 23,400 2,323 Climbing Denver Center
Mon 02:47:18 PM 39.9089 -103.5164 81° East 481 554 26,200 2,293 Climbing Denver Center
Mon 02:48:19 PM 39.9289 -103.3331 82° East 504 580 28,100 1,756 Climbing Denver Center
Mon 02:49:21 PM 39.9497 -103.1450 82° East 519 597 29,800 1,597 Climbing Denver Center
Mon 02:50:23 PM 39.9711 -102.9492 82° East 537 618 31,400 1,597 Climbing Denver Center
Mon 02:51:25 PM 39.9925 -102.7503 82° East 550 633 33,100 1,756 Climbing Denver Center
Mon 02:52:26 PM 40.0153 -102.5400 82° East 547 629 35,000 927 Climbing Denver Center
Mon 02:53:28 PM 40.0342 -102.3544 82° East 540 621 35,000 387 Level Denver Center
Mon 02:54:30 PM 40.0572 -102.1358 82° East 546 628 35,800 1,024 Climbing Denver Center
Mon 02:55:31 PM 40.0772 -101.9458 82° East 552 635 37,100 1,512 Climbing Denver Center
Mon 02:56:33 PM 40.0942 -101.7583 83° East 545 627 38,900 919 Climbing Denver Center
Mon 02:57:35 PM 40.1161 -101.5442 82° East 537 618 39,000 48 Climbing Denver Center
Mon 02:58:37 PM 40.1333 -101.3569 83° East 543 625 39,000  Level Denver Center
Mon 02:59:38 PM 40.1539 -101.1386 83° East 544 626 39,000  Level Denver Center
Mon 03:00:40 PM 40.1722 -100.9533 83° East 541 623 39,000  Level Denver Center
Mon 03:01:42 PM 40.1903 -100.7369 84° East 540 621 39,000  Level Denver Center
Mon 03:02:43 PM 40.2061 -100.5525 84° East 538 619 39,000  Level Denver Center
Mon 03:03:46 PM 40.2078 -100.3378 89° East 533 613 39,000  Level Denver Center
Mon 03:04:47 PM 40.2106 -100.1561 89° East 529 609 39,000  Level Denver Center
Mon 03:05:48 PM 40.2131 -99.9414 89° East 531 611 39,000  Level Denver Center
Mon 03:06:50 PM 40.2167 -99.7453 89° East 529 609 39,000  Level Denver Center
Mon 03:07:52 PM 40.2181 -99.5550 89° East 526 605 39,000  Level Denver Center
Mon 03:08:53 PM 40.2200 -99.3639 89° East 526 605 39,000  Level Denver Center
Mon 03:09:55 PM 40.2208 -99.1736 90° East 525 604 39,000  Level Denver Center
Mon 03:10:57 PM 40.2211 -98.9831 90° East 526 605 39,000  Level Denver Center
Mon 03:11:59 PM 40.2219 -98.7939 90° East 522 601 39,000  Level Denver Center
Mon 03:13:00 PM 40.2231 -98.6042 89° East 524 603 39,000  Level Denver Center
Mon 03:13:15 PM 40.2228 -98.5294 90° East 524 603 39,000  Level Minneapolis Center
Mon 03:14:16 PM 40.2231 -98.3761 90° East 526 605 39,000  Level Minneapolis Center
Mon 03:15:18 PM 40.2219 -98.1472 90° East 527 606 39,000  Level Minneapolis Center
Mon 03:16:20 PM 40.2217 -97.9544 90° East 529 609 39,000  Level Minneapolis Center
Mon 03:17:21 PM 40.2200 -97.7608 91° East 532 612 39,000  Level Minneapolis Center
Mon 03:18:23 PM 40.2181 -97.5672 91° East 533 613 39,000  Level Minneapolis Center
Mon 03:19:24 PM 40.2167 -97.3731 90° East 534 615 39,000  Level Minneapolis Center
Mon 03:20:26 PM 40.2142 -97.1389 91° East 535 616 39,000  Level Minneapolis Center
Mon 03:21:27 PM 40.2128 -96.9447 90° East 535 616 39,000  Level Minneapolis Center
Mon 03:22:29 PM 40.2092 -96.7500 91° East 536 617 39,000  Level Minneapolis Center
Mon 03:23:30 PM 40.2069 -96.5553 91° East 537 618 39,000  Level Minneapolis Center
Mon 03:24:32 PM 40.2031 -96.3597 91° East 538 619 39,000  Level Minneapolis Center
Mon 03:25:33 PM 40.1992 -96.1644 91° East 539 620 39,000  Level Minneapolis Center
Mon 03:26:47 PM 40.1986 -95.9686 90° East 540 621 39,000  Level Minneapolis Center
Mon 03:27:48 PM 40.1989 -95.7294 90° East 547 629 39,000  Level Minneapolis Center
Mon 03:28:50 PM 40.1972 -95.4969 90° East 540 621 39,000  Level Minneapolis Center
Mon 03:29:51 PM 40.1944 -95.3011 91° East 540 621 39,000  Level Minneapolis Center
Mon 03:30:53 PM 40.1939 -95.1058 90° East 539 620 39,000  Level Minneapolis Center
Mon 03:31:54 PM 40.1911 -94.9117 91° East 538 619 39,000  Level Minneapolis Center
Mon 03:32:56 PM 40.1881 -94.7192 91° East 534 615 39,000  Level Minneapolis Center
Mon 03:33:57 PM 40.1847 -94.5158 91° East 536 617 39,000  Level Minneapolis Center
Mon 03:34:59 PM 40.1817 -94.3225 91° East 535 616 39,000  Level Minneapolis Center
Mon 03:36:01 PM 40.1758 -94.1050 92° East 539 620 39,000  Level Kansas City Center
Mon 03:37:02 PM 40.1681 -93.9314 93° East 546 628 39,000  Level Kansas City Center
Mon 03:38:05 PM 40.1642 -93.6958 91° East 545 627 39,000  Level Kansas City Center
Mon 03:39:05 PM 40.1586 -93.4989 92° East 546 628 39,000  Level Kansas City Center
Mon 03:40:06 PM 40.1531 -93.3017 92° East 547 629 39,000  Level Kansas City Center
Mon 03:41:10 PM 40.1492 -93.1058 91° East 546 628 39,000  Level Kansas City Center
Mon 03:42:11 PM 40.1433 -92.9011 92° East 542 624 39,000  Level Kansas City Center
Mon 03:43:12 PM 40.1361 -92.6817 92° East 541 623 39,000  Level Kansas City Center
Mon 03:44:15 PM 40.1258 -92.4947 94° East 537 618 39,000  Level Kansas City Center
Mon 03:45:15 PM 40.1092 -92.3033 96° East 537 618 39,000 -48 Level Kansas City Center
Mon 03:46:19 PM 40.0911 -92.1119 97° East 539 620 38,900  Descending Kansas City Center
Mon 03:47:20 PM 40.0694 -91.8836 97° East 536 617 39,000 49 Climbing Kansas City Center
Mon 03:48:21 PM 40.0508 -91.6931 97° East 535 616 39,000  Level Kansas City Center
Mon 03:49:25 PM 40.0319 -91.5036 97° East 533 613 39,000 -48 Level Kansas City Center
Mon 03:50:25 PM 40.0147 -91.3128 97° East 534 615 38,900  Descending Kansas City Center
Mon 03:51:29 PM 39.9958 -91.1228 97° East 532 612 39,000 48 Climbing Kansas City Center
Mon 03:52:30 PM 39.9739 -90.9194 98° East 533 613 39,000  Level Kansas City Center
Mon 03:53:31 PM 39.9547 -90.7297 97° East 532 612 39,000  Level Kansas City Center
Mon 03:54:34 PM 39.9347 -90.5397 98° East 530 610 39,000  Level Kansas City Center
Mon 03:55:35 PM 39.9106 -90.3136 98° East 530 610 39,000  Level Kansas City Center
Mon 03:56:38 PM 39.8894 -90.1256 98° East 530 610 39,000  Level Kansas City Center
Mon 03:57:39 PM 39.8689 -89.9378 98° East 528 608 39,000  Level Kansas City Center
Mon 03:58:42 PM 39.8478 -89.7531 98° East 524 603 39,000  Level Kansas City Center
Mon 03:59:43 PM 39.8392 -89.5658 93° East 523 602 39,000  Level Kansas City Center
Mon 04:00:46 PM 39.8411 -89.3767 89° East 523 602 39,000  Level Kansas City Center
Mon 04:01:47 PM 39.8414 -89.1531 90° East 521 600 39,000  Level Kansas City Center
Mon 04:02:48 PM 39.8411 -88.9644 90° East 523 602 39,000  Level Kansas City Center
Mon 04:03:52 PM 39.8422 -88.7769 89° East 521 600 39,000  Level Kansas City Center
Mon 04:04:52 PM 39.8408 -88.5917 91° East 516 594 39,000  Level Kansas City Center
Mon 04:05:56 PM 39.8417 -88.4064 90° East 515 593 39,000  Level Kansas City Center
Mon 04:06:56 PM 39.8417 -88.1892 90° East 517 595 39,000  Level Kansas City Center
Mon 04:07:23 PM 39.8392 -88.1178 93° East 516 594 39,000  Level Indianapolis Center
Mon 04:08:24 PM 39.8383 -87.9300 90° East 516 594 39,000  Level Indianapolis Center
Mon 04:09:26 PM 39.8372 -87.7431 90° East 515 593 39,000  Level Indianapolis Center
Mon 04:10:28 PM 39.8344 -87.5578 91° East 513 590 39,000  Level Indianapolis Center
Mon 04:11:30 PM 39.8319 -87.3303 91° East 519 597 39,000  Level Indianapolis Center
Mon 04:12:32 PM 39.8278 -87.1433 92° East 517 595 39,000  Level Indianapolis Center
Mon 04:13:34 PM 39.8256 -86.9558 91° East 515 593 39,000  Level Indianapolis Center
Mon 04:14:36 PM 39.8272 -86.7686 89° East 515 593 39,000  Level Indianapolis Center
Mon 04:15:38 PM 39.8333 -86.5786 88° East 520 598 39,000  Level Indianapolis Center
Mon 04:16:39 PM 39.8389 -86.3883 88° East 523 602 39,000  Level Indianapolis Center
Mon 04:17:41 PM 39.8447 -86.1992 88° East 522 601 39,000  Level Indianapolis Center
Mon 04:18:43 PM 39.8492 -86.0078 88° East 525 604 39,000 -48 Level Indianapolis Center
Mon 04:19:45 PM 39.8514 -85.8117 89° East 525 604 38,900 -48 Descending Indianapolis Center
Mon 04:20:47 PM 39.8569 -85.5886 88° East 524 603 38,900  Level Indianapolis Center
Mon 04:21:49 PM 39.8614 -85.3986 88° East 522 601 38,900  Level Indianapolis Center
Mon 04:22:51 PM 39.8639 -85.2086 89° East 521 600 38,900  Level Indianapolis Center
Mon 04:23:53 PM 39.8664 -85.0186 89° East 521 600 38,900  Level Indianapolis Center
Mon 04:24:55 PM 39.8689 -84.8286 89° East 519 597 38,900  Level Indianapolis Center
Mon 04:25:57 PM 39.8708 -84.6406 89° East 518 596 38,900  Level Indianapolis Center
Mon 04:26:59 PM 39.8750 -84.4525 88° East 516 594 38,900 48 Level Indianapolis Center
Mon 04:28:01 PM 39.8764 -84.2344 89° East 513 590 39,000  Climbing Indianapolis Center
Mon 04:29:03 PM 39.8767 -84.0475 90° East 512 589 38,900 -48 Descending Indianapolis Center
Mon 04:30:05 PM 39.8775 -83.8611 90° East 511 588 38,900  Level Indianapolis Center
Mon 04:31:07 PM 39.8775 -83.6728 90° East 514 592 38,900 48 Level Indianapolis Center
Mon 04:32:09 PM 39.8792 -83.4942 89° East 516 594 39,000  Climbing Indianapolis Center
Mon 04:33:11 PM 39.8794 -83.2814 90° East 519 597 38,900 -48 Descending Indianapolis Center
Mon 04:34:13 PM 39.8786 -83.0936 90° East 516 594 38,900  Level Indianapolis Center
Mon 04:35:15 PM 39.8783 -82.9039 90° East 519 597 38,900  Level Indianapolis Center
Mon 04:36:17 PM 39.8772 -82.7156 90° East 518 596 38,900 -435 Level Indianapolis Center
Mon 04:37:19 PM 39.8758 -82.5286 90° East 514 592 38,000 -871 Descending Indianapolis Center
Mon 04:38:21 PM 39.8744 -82.3436 91° East 508 585 37,100 -532 Descending Indianapolis Center
Mon 04:39:23 PM 39.8725 -82.1264 91° East 510 587 36,900 -97 Descending Indianapolis Center
Mon 04:40:25 PM 39.8697 -81.9411 91° East 509 586 36,900  Level Indianapolis Center
Mon 04:41:27 PM 39.8672 -81.7561 91° East 509 586 36,900  Level Indianapolis Center
Mon 04:42:29 PM 39.8575 -81.5719 94° East 507 583 36,900 48 Level Indianapolis Center
Mon 04:43:31 PM 39.8233 -81.3822 103° East 508 585 37,000 -97 Climbing Indianapolis Center
Mon 04:44:33 PM 39.7939 -81.2022 102° East 507 583 36,700 -563 Descending Indianapolis Center
Mon 04:45:39 PM 39.7642 -81.0153 102° East 504 580 35,800 -912 Descending Cleveland Center
Mon 04:46:38 PM 39.7333 -80.8369 103° East 504 580 34,800 -923 Descending Cleveland Center
Mon 04:48:41 PM 39.6667 -80.4764 103° East 519 597 33,000 -910 Descending Indianapolis Center
Mon 04:49:03 PM 39.6572 -80.4003 99° East 513 590 32,600 -1,037 Descending Washington Center
Mon 04:50:02 PM 39.6264 -80.2311 103° East 501 577 31,600 -958 Descending Washington Center
Mon 04:51:02 PM 39.5975 -80.0597 102° East 493 567 30,700 -950 Descending Washington Center
Mon 04:52:02 PM 39.5642 -79.8853 104° East 493 567 29,700 -1,000 Descending Washington Center
Mon 04:53:02 PM 39.5347 -79.7139 103° East 493 567 28,700 -1,250 Descending Washington Center
Mon 04:54:02 PM 39.5050 -79.5481 103° East 493 567 27,200 -843 Descending Washington Center
Mon 04:55:03 PM 39.4747 -79.3853 103° East 479 551 27,000 -843 Descending Washington Center
Mon 04:56:03 PM 39.4400 -79.2247 106° East 473 544 25,500 -2,050 Descending Washington Center
Mon 04:57:03 PM 39.4133 -79.0703 103° East 455 524 22,900 -2,521 Descending Washington Center
Mon 04:58:02 PM 39.3844 -78.9158 104° East 449 517 20,500 -2,319 Descending Washington Center
Mon 04:59:02 PM 39.3592 -78.7697 103° East 434 499 18,300 -2,050 Descending Washington Center
Mon 05:00:02 PM 39.3336 -78.6317 103° East 411 473 16,400 -2,050 Descending Washington Center
Mon 05:01:02 PM 39.3078 -78.4939 104° East 394 453 14,200 -2,150 Descending Washington Center
Mon 05:02:02 PM 39.2817 -78.3669 105° East 379 436 12,100 -1,650 Descending Washington Center
Mon 05:03:02 PM 39.2511 -78.2478 108° East 365 420 10,900 -1,000 Descending Washington Center
Mon 05:04:02 PM 39.2325 -78.1317 102° East 327 376 10,100 -893 Descending Washington Center
Mon 05:05:03 PM 39.2200 -78.0375 100° East 290 334 9,100 -1,200 Descending Washington Center
Mon 05:06:02 PM 39.2072 -77.9433 100° East 270 311 7,700 -1,361 Descending Washington Center
Mon 05:07:02 PM 39.2153 -77.8472 84° East 265 305 6,400 -1,289 Descending Washington Center
Mon 05:08:03 PM 39.2253 -77.7592 82° East 258 297 5,100 -1,240 Descending Washington Center
Mon 05:09:03 PM 39.2206 -77.6758 94° East 245 282 3,900 -1,212 Descending Washington Center
Mon 05:09:47 PM 39.2000 -77.6167 114° Southeast 231 266 3,000 -514 Descending Potomac TRACON
Mon 05:10:48 PM 39.1833 -77.5333 104° East 228 262 3,000 -298 Level Potomac TRACON
Mon 05:11:48 PM 39.1333 -77.5000 153° Southeast 200 230 2,400 -500 Descending Potomac TRACON
Mon 05:12:48 PM 39.0833 -77.4667 153° Southeast 204 235 2,000 -368 Descending Potomac TRACON
Mon 05:13:42 PM 39.0333 -77.4667 180° South 165 190 1,700 -550 Descending Potomac TRACON
Mon 05:14:48 PM 39.0000 -77.4667 180° South 131 151 900 -727 Descending Potomac TRACON
Mon 05:16:00 PM 38.9474 -77.4599 165° South  Level Estimated
Mon 05:23:00 PM 38.9474 -77.4599 165° South  Level Estimated
Mon 05:24:00 PM 38.9474 -77.4599 165° South  Level Estimated

Login

Don't have an account? Register now (free) for customized features, flight alerts, and more!